createdAt,value
2019-05-11T00:02:39.061Z,23.20
2019-05-11T00:07:57.717Z,19.17
2019-05-11T00:13:16.290Z,20.00
2019-05-11T00:18:34.875Z,22.00
2019-05-11T00:23:53.546Z,24.97
2019-05-11T00:29:12.124Z,35.27
2019-05-11T00:34:30.840Z,30.57
2019-05-11T00:39:49.477Z,30.10
2019-05-11T00:45:08.837Z,40.33
2019-05-11T00:50:38.543Z,32.70
2019-05-11T00:55:47.917Z,45.07
2019-05-11T01:01:06.563Z,44.27
2019-05-11T01:06:25.279Z,46.60
2019-05-11T01:11:44.190Z,47.60
2019-05-11T01:17:02.836Z,40.53
2019-05-11T01:22:21.445Z,35.73
2019-05-11T01:27:40.082Z,48.23
2019-05-11T01:32:58.726Z,65.20
2019-05-11T01:38:17.374Z,43.07
2019-05-11T01:43:35.940Z,47.70
2019-05-11T01:48:54.582Z,59.47
2019-05-11T01:54:13.266Z,52.20
2019-05-11T01:59:31.866Z,48.97
2019-05-11T02:04:52.140Z,53.63
2019-05-11T02:10:11.178Z,45.67
2019-05-11T02:15:29.822Z,44.77
2019-05-11T02:20:48.393Z,48.23
2019-05-11T02:26:06.956Z,46.27
2019-05-11T02:31:25.628Z,49.77
2019-05-11T02:36:44.135Z,50.37
2019-05-11T02:42:02.718Z,47.65
2019-05-11T02:47:21.365Z,47.27
2019-05-11T02:52:40.519Z,47.47
2019-05-11T02:57:59.265Z,53.23
2019-05-11T03:03:17.837Z,55.23
2019-05-11T03:08:36.512Z,38.43
2019-05-11T03:13:55.029Z,42.03
2019-05-11T03:19:13.655Z,42.80
2019-05-11T03:24:32.284Z,45.97
2019-05-11T03:29:50.939Z,50.47
2019-05-11T03:35:09.575Z,51.67
2019-05-11T03:40:28.309Z,45.43
2019-05-11T03:45:47.015Z,48.53
2019-05-11T03:51:05.740Z,46.33
2019-05-11T03:56:24.305Z,55.00
2019-05-11T04:01:42.860Z,54.67
2019-05-11T04:07:01.520Z,63.53
2019-05-11T04:12:34.310Z,59.73
2019-05-11T04:17:40.420Z,74.10
2019-05-11T04:22:59.061Z,70.30
2019-05-11T04:28:17.852Z,131.20
2019-05-11T04:33:36.419Z,65.13
2019-05-11T04:38:55.063Z,70.77
2019-05-11T04:44:13.708Z,99.97
2019-05-11T04:49:32.400Z,112.10
2019-05-11T04:54:51.086Z,102.10
2019-05-11T05:00:10.309Z,122.90
2019-05-11T05:05:28.948Z,86.13
2019-05-11T05:10:52.446Z,115.13
2019-05-11T05:16:07.904Z,109.97
2019-05-11T05:21:26.589Z,99.67
2019-05-11T05:26:45.400Z,103.27
2019-05-11T05:32:04.204Z,110.97
2019-05-11T05:37:22.807Z,89.45
2019-05-11T05:42:41.393Z,95.33
2019-05-11T05:48:00.037Z,80.90
2019-05-11T05:53:18.620Z,65.07
2019-05-11T05:58:37.359Z,55.40
2019-05-11T06:03:56.028Z,59.20
2019-05-11T06:09:14.619Z,72.77
2019-05-11T06:14:33.279Z,61.37
2019-05-11T06:19:51.771Z,56.60
2019-05-11T06:25:10.495Z,47.07
2019-05-11T06:30:29.086Z,45.50
2019-05-11T06:35:47.747Z,42.87
2019-05-11T06:41:06.290Z,51.33
2019-05-11T06:46:25.089Z,53.70
2019-05-11T06:51:43.774Z,48.45
2019-05-11T06:57:02.411Z,48.67
2019-05-11T07:02:20.984Z,60.33
2019-05-11T07:07:47.558Z,52.57
2019-05-11T07:12:59.852Z,58.93
2019-05-11T07:18:18.494Z,58.13
2019-05-11T07:23:37.071Z,67.03
2019-05-11T07:28:56.943Z,62.13
2019-05-11T07:34:15.581Z,68.97
2019-05-11T07:39:34.254Z,69.93
2019-05-11T07:44:52.851Z,74.35
2019-05-11T07:50:12.290Z,85.38
2019-05-11T07:55:31.068Z,93.70
2019-05-11T08:00:49.701Z,90.85
2019-05-11T08:06:08.884Z,97.73
2019-05-11T08:11:31.207Z,107.57
2019-05-11T08:16:48.243Z,105.40
2019-05-11T08:22:08.617Z,105.80
2019-05-11T08:27:28.607Z,105.90
2019-05-11T08:32:49.370Z,112.73
2019-05-11T08:38:08.833Z,91.27
2019-05-11T08:43:28.468Z,102.53
2019-05-11T08:48:47.882Z,90.63
2019-05-11T08:54:08.903Z,84.53
2019-05-11T08:59:28.527Z,84.73
2019-05-11T09:04:48.415Z,77.30
2019-05-11T09:10:08.251Z,67.60
2019-05-11T09:15:36.460Z,66.93
2019-05-11T09:20:48.676Z,59.83
2019-05-11T09:26:08.783Z,65.87
2019-05-11T09:31:28.070Z,60.50
2019-05-11T09:36:47.963Z,54.40
2019-05-11T09:42:07.737Z,49.20
2019-05-11T09:47:27.913Z,48.27
2019-05-11T09:52:48.973Z,52.65
2019-05-11T09:58:08.473Z,50.77
2019-05-11T10:03:28.114Z,42.70
2019-05-11T10:08:48.726Z,42.97
2019-05-11T10:14:08.403Z,43.83
2019-05-11T10:19:28.436Z,35.50
2019-05-11T10:24:47.766Z,32.73
2019-05-11T10:30:08.710Z,33.90
2019-05-11T10:35:28.913Z,30.30
2019-05-11T10:40:49.749Z,35.50
2019-05-11T10:46:16.964Z,25.90
2019-05-11T10:51:28.940Z,28.50
2019-05-11T10:56:48.248Z,29.43
2019-05-11T11:02:08.062Z,30.27
2019-05-11T11:07:28.853Z,25.27
2019-05-11T11:12:48.948Z,33.83
2019-05-11T11:18:08.531Z,25.93
2019-05-11T11:23:28.466Z,29.07
2019-05-11T11:28:48.062Z,26.53
2019-05-11T11:34:08.229Z,28.77
2019-05-11T11:39:28.267Z,30.00
2019-05-11T11:44:48.399Z,27.37
2019-05-11T11:50:09.325Z,28.40
2019-05-11T11:55:28.965Z,28.60
2019-05-11T12:00:48.293Z,23.60
2019-05-11T12:06:08.822Z,28.57
2019-05-11T12:11:28.093Z,28.07
2019-05-11T12:16:48.019Z,24.32
2019-05-11T12:22:08.648Z,26.00
2019-05-11T12:27:28.694Z,25.63
2019-05-11T12:32:49.099Z,24.70
2019-05-11T12:38:07.970Z,24.07
2019-05-11T12:43:27.698Z,24.43
2019-05-11T12:48:48.438Z,22.50
2019-05-11T12:54:08.413Z,24.40
2019-05-11T12:59:28.217Z,21.43
2019-05-11T13:04:48.377Z,24.23
2019-05-11T13:10:10.196Z,14.00
2019-05-11T13:15:28.865Z,13.90
2019-05-11T13:20:48.274Z,13.80
2019-05-11T13:26:08.738Z,15.60
2019-05-11T13:31:27.945Z,13.13
2019-05-11T13:36:48.753Z,9.43
2019-05-11T13:42:08.169Z,15.17
2019-05-11T13:47:28.294Z,14.93
2019-05-11T13:52:47.806Z,13.73
2019-05-11T13:58:08.301Z,16.73
2019-05-11T14:03:27.658Z,15.53
2019-05-11T14:08:48.176Z,12.83
2019-05-11T14:14:08.183Z,11.70
2019-05-11T14:19:29.032Z,13.90
2019-05-11T14:24:48.253Z,12.10
2019-05-11T14:30:08.701Z,12.98
2019-05-11T14:35:27.966Z,13.80
2019-05-11T14:40:48.076Z,12.40
2019-05-11T14:46:08.662Z,12.43
2019-05-11T14:51:28.253Z,15.13
2019-05-11T14:56:48.162Z,16.00
2019-05-11T15:02:08.730Z,15.48
2019-05-11T15:07:33.231Z,15.67
2019-05-11T15:12:51.936Z,10.30
2019-05-11T15:18:10.790Z,14.10
2019-05-11T15:23:29.428Z,13.13
2019-05-11T15:28:48.721Z,14.20
2019-05-11T15:34:08.506Z,16.80
2019-05-11T15:39:28.766Z,12.33
2019-05-11T15:44:49.249Z,16.57
2019-05-11T15:50:09.156Z,10.80
2019-05-11T15:55:28.027Z,13.90
2019-05-11T16:00:48.357Z,11.23
2019-05-11T16:06:07.833Z,13.10
2019-05-11T16:11:28.363Z,14.03
2019-05-11T16:16:48.094Z,10.90
2019-05-11T16:22:09.887Z,10.17
2019-05-11T16:27:28.498Z,15.77
2019-05-11T16:32:48.020Z,12.17
2019-05-11T16:38:07.740Z,14.10
2019-05-11T16:43:28.171Z,12.63
2019-05-11T16:48:47.125Z,15.03
2019-05-11T16:54:05.794Z,7.20
2019-05-11T16:59:24.404Z,13.20
2019-05-11T17:04:43.166Z,14.27
2019-05-11T17:10:01.816Z,11.67
2019-05-11T17:15:22.716Z,21.55
2019-05-11T17:20:41.542Z,6.30
2019-05-11T17:26:00.262Z,13.80
2019-05-11T17:31:19.248Z,13.73
2019-05-11T17:36:38.094Z,8.37
2019-05-11T17:41:58.299Z,15.80
2019-05-11T17:47:17.962Z,8.07
2019-05-11T17:52:38.656Z,5.37
2019-05-11T17:57:58.264Z,4.97
2019-05-11T18:03:17.346Z,6.67
2019-05-11T18:08:36.214Z,8.10
2019-05-11T18:13:54.776Z,7.70
2019-05-11T18:19:15.402Z,9.27
2019-05-11T18:24:34.510Z,4.57
2019-05-11T18:29:53.415Z,3.67
2019-05-11T18:35:13.316Z,2.77
2019-05-11T18:40:31.959Z,8.70
2019-05-11T18:45:50.713Z,4.07
2019-05-11T18:51:09.536Z,9.23
2019-05-11T18:56:28.646Z,5.97
2019-05-11T19:01:49.691Z,4.10
2019-05-11T19:07:16.183Z,4.73
2019-05-11T19:12:30.694Z,7.67
2019-05-11T19:17:49.681Z,8.63
2019-05-11T19:23:08.832Z,5.53
2019-05-11T19:28:31.772Z,8.30
2019-05-11T19:33:50.419Z,8.43
2019-05-11T19:39:11.268Z,6.60
2019-05-11T19:44:29.929Z,3.95
2019-05-11T19:49:48.607Z,5.50
2019-05-11T19:55:08.560Z,4.77
2019-05-11T20:00:27.754Z,4.00
2019-05-11T20:05:48.993Z,3.63
2019-05-11T20:11:08.255Z,6.73
2019-05-11T20:16:27.436Z,5.43
2019-05-11T20:21:48.419Z,8.60
2019-05-11T20:27:08.059Z,7.90
2019-05-11T20:32:28.317Z,8.33
2019-05-11T20:37:47.359Z,12.03
2019-05-11T20:43:08.025Z,8.97
2019-05-11T20:48:27.729Z,8.10
2019-05-11T20:53:48.982Z,3.80
2019-05-11T20:59:08.927Z,6.50
2019-05-11T21:04:28.265Z,9.67
2019-05-11T21:09:48.401Z,8.70
2019-05-11T21:15:09.102Z,11.33
2019-05-11T21:20:28.689Z,10.43
2019-05-11T21:25:47.742Z,4.75
2019-05-11T21:31:07.987Z,5.27
2019-05-11T21:36:28.360Z,6.47
2019-05-11T21:41:47.782Z,10.13
2019-05-11T21:47:07.743Z,11.83
2019-05-11T21:52:28.742Z,4.67
2019-05-11T21:57:49.477Z,3.57
2019-05-11T22:03:09.956Z,7.27
2019-05-11T22:08:28.337Z,4.33
2019-05-11T22:13:48.436Z,13.87
2019-05-11T22:19:08.870Z,6.20
2019-05-11T22:24:30.592Z,9.77
2019-05-11T22:29:49.265Z,6.93
2019-05-11T22:35:09.072Z,7.92
2019-05-11T22:40:28.238Z,11.23
2019-05-11T22:45:48.607Z,5.07
2019-05-11T22:51:07.976Z,9.00
2019-05-11T22:56:28.520Z,7.37
2019-05-11T23:01:48.328Z,6.57
2019-05-11T23:07:07.945Z,8.43
2019-05-11T23:12:28.538Z,9.00
2019-05-11T23:17:47.187Z,7.27
2019-05-11T23:23:05.841Z,10.70
2019-05-11T23:28:24.400Z,7.90
2019-05-11T23:33:42.970Z,5.47
2019-05-11T23:39:01.608Z,10.43
2019-05-11T23:44:20.277Z,8.27
2019-05-11T23:49:39.220Z,7.50
2019-05-11T23:54:58.946Z,4.33
